Time;durP1;ratioP1;P1;durP2;ratioP2;P2;SDS_P1;SDS_P2;PMS_P1;PMS_P2;Temp;Humidity;BMP_temperature;BMP_pressure;BME280_temperature;BME280_humidity;BME280_pressure;Samples;Min_cycle;Max_cycle;Signal;HPM_P1;HPM_P2
2022/03/02 00:04:43;;;;;;;;;;;6.40;99.90;;;;;;10405041;28;84489;-46
2022/03/02 00:09:43;;;;;;;;;;;6.30;99.90;;;;;;10430330;28;86008;-49
2022/03/02 00:14:44;;;;;;;;;;;6.40;99.90;;;;;;10416219;28;84270;-48
2022/03/02 00:19:44;;;;;;;;;;;6.30;99.90;;;;;;10415510;28;85004;-46
2022/03/02 00:24:50;;;;;;;;;;;6.20;99.90;;;;;;10411961;28;84202;-46
2022/03/02 00:29:51;;;;;;;;;;;6.20;99.90;;;;;;10382506;28;84686;-46
2022/03/02 00:34:52;;;;;;;;;;;6.20;99.90;;;;;;10373568;28;84814;-45
2022/03/02 00:39:52;;;;;;;;;;;6.10;99.90;;;;;;10354976;28;85986;-46
2022/03/02 00:44:53;;;;;;;;;;;6.00;99.90;;;;;;10405317;28;84875;-49
2022/03/02 00:49:53;;;;;;;;;;;6.00;99.90;;;;;;10413930;28;84969;-49
2022/03/02 00:54:55;;;;;;;;;;;5.90;99.90;;;;;;10414530;28;84728;-47
2022/03/02 00:59:55;;;;;;;;;;;5.80;1.00;;;;;;10395725;28;84764;-46
2022/03/02 01:04:56;;;;;;;;;;;5.80;1.00;;;;;;10413283;28;84463;-47
2022/03/02 01:09:56;;;;;;;;;;;5.80;1.00;;;;;;10413925;28;85283;-48
2022/03/02 01:14:57;;;;;;;;;;;5.80;1.00;;;;;;10414154;28;84861;-46
2022/03/02 01:19:58;;;;;;;;;;;5.70;1.00;;;;;;10412803;28;85067;-47
2022/03/02 01:24:58;;;;;;;;;;;5.60;1.00;;;;;;10395541;28;85884;-49
2022/03/02 01:29:59;;;;;;;;;;;5.60;1.00;;;;;;10413082;28;84423;-48
2022/03/02 01:35:00;;;;;;;;;;;5.60;1.00;;;;;;10413381;28;84848;-51
2022/03/02 01:40:00;;;;;;;;;;;5.50;1.00;;;;;;10412107;28;84951;-49
2022/03/02 01:45:01;;;;;;;;;;;5.50;1.00;;;;;;10395133;28;86835;-46
2022/03/02 01:50:03;;;;;;;;;;;5.40;1.00;;;;;;10412317;28;84130;-46
2022/03/02 01:55:04;;;;;;;;;;;5.30;1.00;;;;;;10412842;28;84205;-47
2022/03/02 02:00:08;;;;;;;;;;;5.20;1.00;;;;;;10411910;28;84075;-46
2022/03/02 02:05:09;;;;;;;;;;;5.10;1.00;;;;;;10412307;28;84024;-48
2022/03/02 02:10:11;;;;;;;;;;;5.00;1.00;;;;;;10411178;28;84905;-47
2022/03/02 02:15:11;;;;;;;;;;;4.90;1.00;;;;;;10411261;28;85085;-49
2022/03/02 02:20:12;;;;;;;;;;;4.90;1.00;;;;;;10411478;28;84376;-47
2022/03/02 02:25:13;;;;;;;;;;;4.70;1.00;;;;;;10394582;28;86165;-46
2022/03/02 02:30:14;;;;;;;;;;;4.80;1.00;;;;;;10393560;28;84998;-48
2022/03/02 02:35:15;;;;;;;;;;;4.60;1.00;;;;;;10393134;28;84367;-46
2022/03/02 02:40:18;;;;;;;;;;;4.60;1.00;;;;;;10410923;28;84821;-48
2022/03/02 02:45:20;;;;;;;;;;;4.50;1.00;;;;;;10410424;28;85131;-47
2022/03/02 02:50:26;;;;;;;;;;;4.60;1.00;;;;;;10410479;28;85040;-47
2022/03/02 02:55:28;;;;;;;;;;;4.60;1.00;;;;;;10410198;28;84814;-50
2022/03/02 03:00:30;;;;;;;;;;;4.60;1.00;;;;;;10409892;28;84780;-49
2022/03/02 03:05:32;;;;;;;;;;;4.60;1.00;;;;;;10409309;28;83958;-47
2022/03/02 03:10:33;;;;;;;;;;;4.50;1.00;;;;;;10392487;28;86903;-47
2022/03/02 03:15:34;;;;;;;;;;;4.50;1.00;;;;;;10409435;28;84188;-47
2022/03/02 03:20:35;;;;;;;;;;;4.60;1.00;;;;;;10410606;28;84086;-50
2022/03/02 03:25:36;;;;;;;;;;;4.60;1.00;;;;;;10390585;28;84150;-48
2022/03/02 03:30:36;;;;;;;;;;;4.60;1.00;;;;;;10420837;28;84777;-47
2022/03/02 03:35:37;;;;;;;;;;;4.50;1.00;;;;;;10422752;28;84126;-46
2022/03/02 03:40:37;;;;;;;;;;;4.60;1.00;;;;;;10422656;28;84872;-47
2022/03/02 03:45:38;;;;;;;;;;;4.40;1.00;;;;;;10407964;28;84840;-46
2022/03/02 03:50:39;;;;;;;;;;;4.30;1.00;;;;;;10423222;28;84317;-49
2022/03/02 03:55:40;;;;;;;;;;;4.30;1.00;;;;;;10421647;28;84045;-48
2022/03/02 04:00:41;;;;;;;;;;;4.30;1.00;;;;;;10397641;28;84957;-46
2022/03/02 04:05:41;;;;;;;;;;;4.20;1.00;;;;;;10449666;22;84289;-45
2022/03/02 04:10:42;;;;;;;;;;;4.10;1.00;;;;;;10435941;28;87093;-44
2022/03/02 04:15:43;;;;;;;;;;;4.10;1.00;;;;;;10408454;28;84536;-45
2022/03/02 04:20:43;;;;;;;;;;;4.00;1.00;;;;;;10400008;28;86052;-44
2022/03/02 04:25:44;;;;;;;;;;;4.00;1.00;;;;;;10363508;28;84938;-46
2022/03/02 04:30:45;;;;;;;;;;;3.90;1.00;;;;;;10400067;28;86669;-44
2022/03/02 04:35:45;;;;;;;;;;;3.90;1.00;;;;;;10379112;28;85771;-46
2022/03/02 04:40:46;;;;;;;;;;;3.80;1.00;;;;;;10376343;28;84921;-45
2022/03/02 04:45:46;;;;;;;;;;;3.80;1.00;;;;;;10374799;28;85034;-47
2022/03/02 04:50:47;;;;;;;;;;;3.70;1.00;;;;;;10376907;28;84282;-46
2022/03/02 04:55:49;;;;;;;;;;;3.60;1.00;;;;;;10376752;28;84014;-45
2022/03/02 05:00:50;;;;;;;;;;;3.50;1.00;;;;;;10392359;28;84824;-44
2022/03/02 05:05:50;;;;;;;;;;;3.50;1.00;;;;;;10414887;28;84055;-46
2022/03/02 05:11:10;;;;;;;;;;;3.50;1.00;;;;;;10413764;28;84759;-45
2022/03/02 05:16:13;;;;;;;;;;;3.60;1.00;;;;;;10410021;28;104889;-47
2022/03/02 05:21:14;;;;;;;;;;;3.50;1.00;;;;;;10413794;28;85053;-48
2022/03/02 05:26:14;;;;;;;;;;;3.40;1.00;;;;;;10394414;28;87021;-45
2022/03/02 05:31:15;;;;;;;;;;;3.40;1.00;;;;;;10395102;28;85976;-48
2022/03/02 05:36:15;;;;;;;;;;;3.40;1.00;;;;;;10392344;28;87146;-44
2022/03/02 05:41:16;;;;;;;;;;;3.40;1.00;;;;;;10411829;28;84329;-46
2022/03/02 05:46:17;;;;;;;;;;;3.40;1.00;;;;;;10411834;28;84689;-45
2022/03/02 05:51:17;;;;;;;;;;;3.50;1.00;;;;;;10413285;28;84214;-45
2022/03/02 05:56:19;;;;;;;;;;;3.40;1.00;;;;;;10411666;28;84971;-47
2022/03/02 06:01:20;;;;;;;;;;;3.50;1.00;;;;;;10412699;28;84027;-45
2022/03/02 06:06:32;;;;;;;;;;;3.40;1.00;;;;;;10393009;28;84988;-44
2022/03/02 06:11:33;;;;;;;;;;;3.30;1.00;;;;;;10403719;28;84875;-45
2022/03/02 06:16:34;;;;;;;;;;;3.30;1.00;;;;;;10398329;28;84737;-44
2022/03/02 06:21:37;;;;;;;;;;;3.30;1.00;;;;;;10402624;28;84673;-46
2022/03/02 06:26:38;;;;;;;;;;;3.30;1.00;;;;;;10385282;28;86013;-45
2022/03/02 06:31:40;;;;;;;;;;;3.40;1.00;;;;;;10407006;28;84890;-46
2022/03/02 06:36:40;;;;;;;;;;;3.40;1.00;;;;;;10378159;28;84690;-45
2022/03/02 06:41:47;;;;;;;;;;;3.50;1.00;;;;;;10394262;28;84760;-47
2022/03/02 06:46:54;;;;;;;;;;;3.50;1.00;;;;;;10409614;28;85054;-44
2022/03/02 06:51:57;;;;;;;;;;;3.60;1.00;;;;;;10408546;28;85121;-45
2022/03/02 06:56:59;;;;;;;;;;;3.70;1.00;;;;;;10399665;28;84942;-51
2022/03/02 07:02:02;;;;;;;;;;;3.80;1.00;;;;;;10399215;28;84900;-45
2022/03/02 07:07:03;;;;;;;;;;;3.80;1.00;;;;;;10400413;28;85057;-48
2022/03/02 07:12:05;;;;;;;;;;;3.90;1.00;;;;;;10411818;28;84003;-50
2022/03/02 07:17:06;;;;;;;;;;;3.90;1.00;;;;;;10410207;28;84850;-46
2022/03/02 07:22:07;;;;;;;;;;;4.10;1.00;;;;;;10404994;28;85266;-46
2022/03/02 07:27:08;;;;;;;;;;;4.00;1.00;;;;;;10368837;28;84144;-46
2022/03/02 07:32:10;;;;;;;;;;;4.10;1.00;;;;;;10388857;28;85605;-47
2022/03/02 07:37:10;;;;;;;;;;;4.10;1.00;;;;;;10400796;28;86313;-45
2022/03/02 07:42:11;;;;;;;;;;;4.30;1.00;;;;;;10373299;28;84913;-49
2022/03/02 07:47:12;;;;;;;;;;;4.90;1.00;;;;;;10366918;28;84199;-49
2022/03/02 07:52:13;;;;;;;;;;;5.80;99.90;;;;;;10350376;28;84094;-47
2022/03/02 07:57:14;;;;;;;;;;;6.80;99.90;;;;;;10401691;28;84326;-50
2022/03/02 08:02:19;;;;;;;;;;;7.70;1.00;;;;;;10408994;28;84143;-45
2022/03/02 08:07:20;;;;;;;;;;;8.50;1.00;;;;;;10389286;28;85104;-44
2022/03/02 08:12:21;;;;;;;;;;;9.50;99.90;;;;;;10397090;28;84666;-47
2022/03/02 08:17:22;;;;;;;;;;;9.90;1.00;;;;;;10414407;28;85007;-43
2022/03/02 08:22:23;;;;;;;;;;;10.60;1.00;;;;;;10412396;28;86529;-45
2022/03/02 08:27:24;;;;;;;;;;;11.00;1.00;;;;;;10399011;28;85161;-50
2022/03/02 08:32:25;;;;;;;;;;;11.60;1.00;;;;;;10356611;28;86025;-44
2022/03/02 08:37:26;;;;;;;;;;;12.10;99.90;;;;;;10405744;28;84585;-50
2022/03/02 08:42:27;;;;;;;;;;;12.70;99.90;;;;;;10390046;28;85970;-47
2022/03/02 08:47:27;;;;;;;;;;;13.00;1.00;;;;;;10391930;28;84895;-47
2022/03/02 08:52:29;;;;;;;;;;;13.10;1.00;;;;;;10392709;28;84090;-48
2022/03/02 08:57:31;;;;;;;;;;;13.80;1.00;;;;;;10382844;28;84140;-47
2022/03/02 09:02:34;;;;;;;;;;;13.70;1.00;;;;;;10413954;28;84650;-47
2022/03/02 09:07:35;;;;;;;;;;;13.90;1.00;;;;;;10394833;28;85025;-50
2022/03/02 09:12:36;;;;;;;;;;;14.20;99.90;;;;;;10378327;28;84999;-48
2022/03/02 09:17:36;;;;;;;;;;;14.30;1.00;;;;;;10371450;28;84818;-46
2022/03/02 09:22:38;;;;;;;;;;;14.50;1.00;;;;;;10382724;28;84801;-48
2022/03/02 09:27:39;;;;;;;;;;;14.90;1.00;;;;;;10401031;28;84539;-43
2022/03/02 09:32:41;;;;;;;;;;;15.10;1.00;;;;;;10415494;28;84029;-47
2022/03/02 09:37:43;;;;;;;;;;;15.30;99.90;;;;;;10412102;28;84353;-49
2022/03/02 09:42:46;;;;;;;;;;;14.90;1.00;;;;;;10397478;28;86865;-45
2022/03/02 09:47:52;;;;;;;;;;;14.90;99.90;;;;;;10410147;28;85124;-45
2022/03/02 09:52:54;;;;;;;;;;;15.00;99.90;;;;;;10389608;28;86999;-49
2022/03/02 09:57:56;;;;;;;;;;;15.00;99.90;;;;;;10398541;28;85708;-47
2022/03/02 10:02:58;;;;;;;;;;;15.60;1.00;;;;;;10404303;28;86874;-51
2022/03/02 10:08:03;;;;;;;;;;;16.20;99.90;;;;;;10444171;22;87248;-54
2022/03/02 10:13:08;;;;;;;;;;;16.10;1.00;;;;;;10452470;27;84902;-54
2022/03/02 10:18:12;;;;;;;;;;;16.20;1.00;;;;;;10435442;28;85193;-54
2022/03/02 10:23:18;;;;;;;;;;;16.30;1.00;;;;;;10426598;28;84906;-56
2022/03/02 10:28:29;;;;;;;;;;;16.60;1.00;;;;;;10436097;28;83979;-48
2022/03/02 10:33:36;;;;;;;;;;;16.40;1.00;;;;;;10434614;28;84860;-51
2022/03/02 10:38:40;;;;;;;;;;;17.00;99.90;;;;;;10416337;28;84829;-46
2022/03/02 10:43:58;;;;;;;;;;;16.90;99.90;;;;;;10423359;28;84236;-50
2022/03/02 10:49:03;;;;;;;;;;;16.80;1.00;;;;;;10409115;28;84058;-53
2022/03/02 10:54:06;;;;;;;;;;;17.40;99.90;;;;;;10411453;28;84601;-52
2022/03/02 10:59:08;;;;;;;;;;;17.50;1.00;;;;;;10410065;28;84941;-48
2022/03/02 11:04:09;;;;;;;;;;;17.00;1.00;;;;;;10391240;28;84891;-51
2022/03/02 11:09:09;;;;;;;;;;;17.10;99.90;;;;;;10431668;28;84104;-53
2022/03/02 11:14:10;;;;;;;;;;;17.70;1.00;;;;;;10410451;28;86333;-53
2022/03/02 11:19:12;;;;;;;;;;;17.70;99.90;;;;;;10427115;28;84558;-53
2022/03/02 11:24:17;;;;;;;;;;;18.20;99.90;;;;;;10410307;28;84951;-51
2022/03/02 11:29:18;;;;;;;;;;;18.00;1.00;;;;;;10428861;28;84467;-56
2022/03/02 11:34:20;;;;;;;;;;;18.70;1.00;;;;;;10437505;28;84272;-53
2022/03/02 11:39:24;;;;;;;;;;;19.20;1.00;;;;;;10449242;28;84309;-49
2022/03/02 11:44:25;;;;;;;;;;;18.70;1.00;;;;;;10431383;28;84278;-51
2022/03/02 11:49:45;;;;;;;;;;;18.60;1.00;;;;;;10399022;28;86901;-52
2022/03/02 11:54:50;;;;;;;;;;;18.10;1.00;;;;;;10445207;28;84191;-57
2022/03/02 12:00:04;;;;;;;;;;;18.20;1.00;;;;;;10414508;28;84002;-55
2022/03/02 12:05:13;;;;;;;;;;;18.30;1.00;;;;;;10413675;28;84051;-51
2022/03/02 12:10:17;;;;;;;;;;;18.50;1.00;;;;;;10416508;28;84328;-57
2022/03/02 12:15:18;;;;;;;;;;;18.00;1.00;;;;;;10443888;28;85039;-53
2022/03/02 12:20:20;;;;;;;;;;;17.80;1.00;;;;;;10457036;28;84951;-53
2022/03/02 12:25:22;;;;;;;;;;;18.60;1.00;;;;;;10455064;28;84316;-50
2022/03/02 12:30:22;;;;;;;;;;;18.60;1.00;;;;;;10431264;28;84895;-53
2022/03/02 12:35:23;;;;;;;;;;;18.70;99.90;;;;;;10442730;28;84749;-54
2022/03/02 12:40:26;;;;;;;;;;;18.00;1.00;;;;;;10431218;28;87106;-51
2022/03/02 12:45:27;;;;;;;;;;;18.40;1.00;;;;;;10447870;28;84151;-48
2022/03/02 12:50:29;;;;;;;;;;;18.50;1.00;;;;;;10413348;28;84017;-49
2022/03/02 12:55:30;;;;;;;;;;;18.50;1.00;;;;;;10419548;28;84889;-50
2022/03/02 13:00:30;;;;;;;;;;;18.10;1.00;;;;;;10436867;27;84907;-50
2022/03/02 13:05:34;;;;;;;;;;;17.70;1.00;;;;;;10412594;28;87634;-50
2022/03/02 13:10:41;;;;;;;;;;;17.90;1.00;;;;;;10430667;28;85947;-51
2022/03/02 13:15:42;;;;;;;;;;;18.00;1.00;;;;;;10422887;28;84131;-49
2022/03/02 13:20:44;;;;;;;;;;;17.50;1.00;;;;;;10413207;28;84791;-49
2022/03/02 13:26:08;;;;;;;;;;;17.30;99.90;;;;;;10400358;28;86327;-55
2022/03/02 13:31:12;;;;;;;;;;;17.60;99.90;;;;;;10441858;28;84307;-48
2022/03/02 13:36:30;;;;;;;;;;;18.00;64.30;;;;;;10426711;28;85985;-53
2022/03/02 13:41:43;;;;;;;;;;;18.20;99.90;;;;;;10433064;28;84020;-53
2022/03/02 13:46:43;;;;;;;;;;;18.50;1.00;;;;;;10412228;28;84931;-50
2022/03/02 13:51:48;;;;;;;;;;;18.10;11.00;;;;;;10404171;28;85986;-44
2022/03/02 13:56:49;;;;;;;;;;;17.90;1.00;;;;;;10418123;28;85023;-42
2022/03/02 14:01:50;;;;;;;;;;;18.30;1.00;;;;;;10435072;28;84022;-47
2022/03/02 14:06:55;;;;;;;;;;;17.80;1.00;;;;;;10452149;27;84992;-47
2022/03/02 14:11:57;;;;;;;;;;;17.10;1.00;;;;;;10462232;27;84938;-51
2022/03/02 14:16:59;;;;;;;;;;;15.90;1.00;;;;;;10451877;28;84114;-50
2022/03/02 14:22:01;;;;;;;;;;;14.90;1.00;;;;;;10432252;28;85806;-53
2022/03/02 14:27:03;;;;;;;;;;;14.40;99.90;;;;;;10427620;28;84110;-54
2022/03/02 14:32:09;;;;;;;;;;;13.80;99.90;;;;;;10432437;28;85062;-50
2022/03/02 14:37:11;;;;;;;;;;;13.40;95.90;;;;;;10428605;28;85046;-55
2022/03/02 14:42:13;;;;;;;;;;;13.50;99.90;;;;;;10412348;28;84190;-54
2022/03/02 14:47:26;;;;;;;;;;;13.50;27.90;;;;;;10429251;28;85118;-52
2022/03/02 14:52:30;;;;;;;;;;;13.80;1.00;;;;;;10429876;28;84231;-53
2022/03/02 14:57:37;;;;;;;;;;;14.30;9.70;;;;;;10405286;28;85084;-46
2022/03/02 15:02:37;;;;;;;;;;;14.20;1.00;;;;;;10451433;28;84910;-54
2022/03/02 15:07:38;;;;;;;;;;;14.10;1.00;;;;;;10445315;28;86202;-56
2022/03/02 15:14:58;;;;;;;;;;;14.60;1.00;;;;;;10444374;28;84642;-45
2022/03/02 15:18:10;;;;;;;;;;;14.20;1.00;;;;;;10419752;28;86285;-56
2022/03/02 15:23:10;;;;;;;;;;;13.50;1.00;;;;;;10413145;28;85275;-55
2022/03/02 15:28:12;;;;;;;;;;;12.80;1.00;;;;;;10427346;28;85067;-56
2022/03/02 15:33:13;;;;;;;;;;;12.30;1.00;;;;;;10431215;28;85398;-56
2022/03/02 15:38:15;;;;;;;;;;;12.00;1.00;;;;;;10430024;28;85210;-51
2022/03/02 15:43:16;;;;;;;;;;;11.90;1.00;;;;;;10430569;28;84175;-52
2022/03/02 15:48:19;;;;;;;;;;;11.70;1.00;;;;;;10429483;28;83990;-51
2022/03/02 15:53:27;;;;;;;;;;;11.50;1.00;;;;;;10430140;28;84399;-54
2022/03/02 15:58:46;;;;;;;;;;;11.40;1.00;;;;;;10410894;28;84816;-51
2022/03/02 16:03:51;;;;;;;;;;;11.30;1.00;;;;;;10439458;27;84202;-48
2022/03/02 16:08:51;;;;;;;;;;;11.20;1.00;;;;;;10491590;22;84917;-42
2022/03/02 16:14:09;;;;;;;;;;;11.10;1.00;;;;;;10489024;27;84275;-43
2022/03/02 16:19:11;;;;;;;;;;;11.00;1.00;;;;;;10479042;27;84934;-46
2022/03/02 16:24:28;;;;;;;;;;;10.80;1.00;;;;;;10474494;27;84957;-42
2022/03/02 16:29:29;;;;;;;;;;;10.70;1.00;;;;;;10448973;27;84955;-47
2022/03/02 16:34:34;;;;;;;;;;;10.60;1.00;;;;;;10449109;28;84118;-41
2022/03/02 16:39:35;;;;;;;;;;;10.60;1.00;;;;;;10451699;27;84173;-42
2022/03/02 16:44:36;;;;;;;;;;;10.50;1.00;;;;;;10458248;28;84887;-42
2022/03/02 16:49:39;;;;;;;;;;;10.30;1.00;;;;;;10457081;27;84869;-43
2022/03/02 16:54:40;;;;;;;;;;;10.20;1.00;;;;;;10452046;27;84233;-42
2022/03/02 16:59:43;;;;;;;;;;;10.00;1.00;;;;;;10456378;27;85023;-42
2022/03/02 17:04:44;;;;;;;;;;;10.00;1.00;;;;;;10454889;28;84391;-41
2022/03/02 17:09:44;;;;;;;;;;;9.90;1.00;;;;;;10455728;27;84926;-41
2022/03/02 17:14:45;;;;;;;;;;;9.70;1.00;;;;;;10455342;28;85003;-41
2022/03/02 17:19:45;;;;;;;;;;;9.60;1.00;;;;;;10455355;27;85302;-41
2022/03/02 17:24:46;;;;;;;;;;;9.50;1.00;;;;;;10456716;28;85171;-41
2022/03/02 17:29:48;;;;;;;;;;;9.30;1.00;;;;;;10455850;27;85785;-41
2022/03/02 17:34:49;;;;;;;;;;;9.30;1.00;;;;;;10457296;28;84002;-41
2022/03/02 17:39:50;;;;;;;;;;;9.10;1.00;;;;;;10454894;28;84807;-41
2022/03/02 17:44:50;;;;;;;;;;;9.00;1.00;;;;;;10455578;28;84112;-41
2022/03/02 17:49:51;;;;;;;;;;;8.90;1.00;;;;;;10454398;27;84211;-41
2022/03/02 17:54:51;;;;;;;;;;;8.90;1.00;;;;;;10455717;28;84091;-40
2022/03/02 17:59:52;;;;;;;;;;;8.80;1.00;;;;;;10454500;28;84514;-45
2022/03/02 18:04:53;;;;;;;;;;;8.60;1.00;;;;;;10453739;28;85213;-39
2022/03/02 18:09:53;;;;;;;;;;;8.50;1.00;;;;;;10454228;28;84079;-42
2022/03/02 18:14:55;;;;;;;;;;;8.40;1.00;;;;;;10441326;28;85034;-43
2022/03/02 18:19:55;;;;;;;;;;;8.30;1.00;;;;;;10451616;28;84929;-41
2022/03/02 18:24:56;;;;;;;;;;;8.30;1.00;;;;;;10450106;27;84212;-43
2022/03/02 18:29:57;;;;;;;;;;;8.20;99.90;;;;;;10453673;28;84674;-42
2022/03/02 18:34:59;;;;;;;;;;;8.10;1.00;;;;;;10469618;27;86039;-41
2022/03/02 18:40:03;;;;;;;;;;;7.90;99.90;;;;;;10441141;28;86981;-43
2022/03/02 18:45:04;;;;;;;;;;;7.80;99.90;;;;;;10446786;28;85004;-44
2022/03/02 18:50:07;;;;;;;;;;;7.70;99.90;;;;;;10443712;28;86233;-43
2022/03/02 18:55:09;;;;;;;;;;;7.60;1.00;;;;;;10448753;27;84933;-44
2022/03/02 19:00:10;;;;;;;;;;;7.50;1.00;;;;;;10446167;27;84842;-46
2022/03/02 19:05:11;;;;;;;;;;;7.50;1.00;;;;;;10442608;28;85977;-42
2022/03/02 19:10:12;;;;;;;;;;;7.40;1.00;;;;;;10439777;28;84911;-50
2022/03/02 19:15:12;;;;;;;;;;;7.30;1.00;;;;;;10439962;27;85336;-45
2022/03/02 19:20:13;;;;;;;;;;;7.20;1.00;;;;;;10443726;28;85177;-44
2022/03/02 19:25:15;;;;;;;;;;;7.20;1.00;;;;;;10443437;27;84415;-43
2022/03/02 19:30:16;;;;;;;;;;;7.10;1.00;;;;;;10448334;28;84117;-45
2022/03/02 19:35:17;;;;;;;;;;;7.00;1.00;;;;;;10451660;28;84988;-47
2022/03/02 19:40:17;;;;;;;;;;;6.90;31.20;;;;;;10449984;28;86512;-44
2022/03/02 19:45:19;;;;;;;;;;;6.90;99.90;;;;;;10452160;28;84943;-44
2022/03/02 19:50:21;;;;;;;;;;;6.80;1.00;;;;;;10450555;28;87079;-44
2022/03/02 19:55:21;;;;;;;;;;;6.70;1.00;;;;;;10437520;28;85823;-45
2022/03/02 20:00:22;;;;;;;;;;;6.70;1.00;;;;;;10432579;28;84840;-45
2022/03/02 20:05:23;;;;;;;;;;;6.50;1.00;;;;;;10452452;27;84975;-41
2022/03/02 20:10:23;;;;;;;;;;;6.50;99.90;;;;;;10453719;27;84846;-45
2022/03/02 20:15:24;;;;;;;;;;;6.40;1.00;;;;;;10456536;27;84208;-41
2022/03/02 20:20:25;;;;;;;;;;;6.30;1.00;;;;;;10458899;28;85157;-43
2022/03/02 20:25:25;;;;;;;;;;;6.30;99.90;;;;;;10433432;28;84871;-44
2022/03/02 20:30:27;;;;;;;;;;;6.10;1.00;;;;;;10438775;28;87253;-45
2022/03/02 20:35:29;;;;;;;;;;;6.10;1.00;;;;;;10433006;27;84278;-45
2022/03/02 20:40:30;;;;;;;;;;;6.00;99.90;;;;;;10457790;28;85005;-45
2022/03/02 20:45:31;;;;;;;;;;;5.90;1.00;;;;;;10421271;28;85070;-43
2022/03/02 20:50:32;;;;;;;;;;;5.90;1.00;;;;;;10415794;28;84021;-45
2022/03/02 20:55:33;;;;;;;;;;;5.80;50.80;;;;;;10448852;27;84086;-43
2022/03/02 21:00:36;;;;;;;;;;;5.70;99.90;;;;;;10434068;28;85994;-45
2022/03/02 21:05:36;;;;;;;;;;;5.60;1.00;;;;;;10413845;28;84179;-44
2022/03/02 21:10:37;;;;;;;;;;;5.60;1.00;;;;;;10433766;28;84159;-44
2022/03/02 21:15:37;;;;;;;;;;;5.60;1.00;;;;;;10454345;28;85053;-43
2022/03/02 21:20:38;;;;;;;;;;;5.60;1.00;;;;;;10440839;27;84864;-41
2022/03/02 21:25:39;;;;;;;;;;;5.50;1.00;;;;;;10449209;28;84242;-43
2022/03/02 21:30:40;;;;;;;;;;;5.50;1.00;;;;;;10442348;28;86529;-41
2022/03/02 21:35:41;;;;;;;;;;;5.40;37.60;;;;;;10438054;28;84987;-45
2022/03/02 21:40:42;;;;;;;;;;;5.30;99.90;;;;;;10444719;28;84811;-42
2022/03/02 21:45:42;;;;;;;;;;;5.30;99.90;;;;;;10449010;28;84220;-42
2022/03/02 21:50:43;;;;;;;;;;;5.20;99.90;;;;;;10454415;28;84609;-43
2022/03/02 21:55:43;;;;;;;;;;;5.10;99.90;;;;;;10454171;28;84220;-43
2022/03/02 22:00:44;;;;;;;;;;;5.10;99.90;;;;;;10453929;28;85006;-41
2022/03/02 22:05:44;;;;;;;;;;;5.00;99.90;;;;;;10476737;22;85145;-51
2022/03/02 22:10:45;;;;;;;;;;;5.00;1.00;;;;;;10358932;28;84227;-52
2022/03/02 22:15:45;;;;;;;;;;;5.00;1.00;;;;;;10356200;28;84258;-47
2022/03/02 22:20:46;;;;;;;;;;;4.90;1.00;;;;;;10388860;28;84240;-47
2022/03/02 22:25:47;;;;;;;;;;;4.90;1.00;;;;;;10351351;28;86990;-49
2022/03/02 22:30:47;;;;;;;;;;;4.90;1.00;;;;;;10347145;28;85247;-46
2022/03/02 22:35:48;;;;;;;;;;;4.80;1.00;;;;;;10326889;28;84975;-46
2022/03/02 22:40:49;;;;;;;;;;;4.70;1.00;;;;;;10315794;28;86705;-45
2022/03/02 22:45:49;;;;;;;;;;;4.70;1.00;;;;;;10369791;28;84117;-45
2022/03/02 22:50:51;;;;;;;;;;;4.60;1.00;;;;;;10364715;28;85010;-46
2022/03/02 22:55:52;;;;;;;;;;;4.60;1.00;;;;;;10327245;28;84002;-47
2022/03/02 23:01:04;;;;;;;;;;;4.50;1.00;;;;;;10331839;28;84110;-45
2022/03/02 23:17:37;;;;;;;;;;;4.40;1.00;;;;;;10325465;28;84811;-47
2022/03/02 23:22:04;;;;;;;;;;;4.30;1.00;;;;;;10322213;28;86983;-47
2022/03/02 23:27:05;;;;;;;;;;;4.30;20.20;;;;;;10366447;28;84366;-47
2022/03/02 23:32:06;;;;;;;;;;;4.30;41.90;;;;;;10353628;28;84769;-48
2022/03/02 23:37:06;;;;;;;;;;;4.20;55.90;;;;;;10324883;28;84795;-47
2022/03/02 23:42:07;;;;;;;;;;;4.20;66.90;;;;;;10327112;28;84980;-46
2022/03/02 23:47:07;;;;;;;;;;;4.10;76.40;;;;;;10331472;28;84377;-46
2022/03/02 23:52:08;;;;;;;;;;;4.10;99.90;;;;;;10348508;28;84919;-49
2022/03/02 23:57:08;;;;;;;;;;;4.00;99.90;;;;;;10373677;28;84273;-47
